PWSweather.com
Personal Weather Stations
Station Observations
VPOKROGLO
Kal Nad Kanalom, PrimorskaSI

Kal Nad KanalomPrimorskaSI

Lat: 46.072, Lon: 13.734

Elevation: 2526

Station Type: WS-2355

http://www.okroglovreme.com

High Low Average
Temperature 31.6°F-0.2°F 21.4°F-5.9°F 25.6°F-3.6°F
Dew Point 16.0°F-8.9°F 10.9°F-11.7°F 13.1°F-10.5°F
Winds 10.8 mph E17.4 mph E 5.6 mph 9.0 mph 8.4 mph 13.5 mph
Wind Gusts 31.1 mph50.1 mph 7.0 mph11.3 mph 20.2 mph32.5 mph
Humidity 68% 50% 59%
Pressure 30.64 in1037.60 in 30.47 in1031.80 in -
Precipitation 0.44 in11.20 in - -
Hour Temp Dew Point Humidity Winds Wind Gusts Pressure Precip Precip Rate Daily Precip Total
12:00 AM 23.5°F-4.7°C 12.8°F-10.7°C 63% 8.2 mph NE13.2 kmh NE 23.3 mph37.5 kmh 30.57 in1035.2 mb 0.00 in0.0 mm 0.00 in0.0 mm 0.00 in0.0 mm
12:15 AM 23.5°F-4.7°C 13.1°F-10.5°C 64% 9.6 mph NE15.4 kmh NE 19.9 mph32.0 kmh 30.59 in1035.9 mb 0.00 in0.0 mm 0.00 in0.0 mm 0.00 in0.0 mm
12:30 AM 23.5°F-4.7°C 13.1°F-10.5°C 64% 7.5 mph NE12.1 kmh NE 21.5 mph34.6 kmh 30.59 in1035.9 mb 0.00 in0.0 mm 0.00 in0.0 mm 0.00 in0.0 mm
12:45 AM 23.5°F-4.7°C 13.1°F-10.5°C 64% 7.3 mph NE11.7 kmh NE 18.3 mph29.5 kmh 30.59 in1035.9 mb 0.00 in0.0 mm 0.00 in0.0 mm 0.00 in0.0 mm
01:00 AM 23.5°F-4.7°C 13.1°F-10.5°C 64% 8.5 mph NE13.7 kmh NE 25.1 mph40.4 kmh 30.59 in1035.9 mb 0.00 in0.0 mm 0.00 in0.0 mm 0.00 in0.0 mm
01:15 AM 23.5°F-4.7°C 13.1°F-10.5°C 64% 7.7 mph NE12.4 kmh NE 18.3 mph29.5 kmh 30.59 in1035.9 mb 0.00 in0.0 mm 0.00 in0.0 mm 0.00 in0.0 mm
01:30 AM 23.5°F-4.7°C 13.1°F-10.5°C 64% 6.4 mph ENE10.3 kmh ENE 19.5 mph31.4 kmh 30.59 in1035.9 mb 0.00 in0.0 mm 0.00 in0.0 mm 0.00 in0.0 mm
01:45 AM 23.7°F-4.6°C 13.0°F-10.6°C 63% 8.3 mph E13.4 kmh E 22.4 mph36.0 kmh 30.58 in1035.6 mb 0.00 in0.0 mm 0.00 in0.0 mm 0.00 in0.0 mm
02:00 AM 23.5°F-4.7°C 12.8°F-10.7°C 63% 8.3 mph E13.4 kmh E 19.9 mph32.0 kmh 30.57 in1035.2 mb 0.00 in0.0 mm 0.00 in0.0 mm 0.00 in0.0 mm
02:15 AM 23.5°F-4.7°C 12.8°F-10.7°C 63% 8.4 mph ENE13.5 kmh ENE 18.3 mph29.5 kmh 30.58 in1035.6 mb 0.00 in0.0 mm 0.00 in0.0 mm 0.00 in0.0 mm
02:30 AM 23.7°F-4.6°C 13.0°F-10.6°C 63% 8.3 mph NE13.4 kmh NE 19.9 mph32.0 kmh 30.59 in1035.9 mb 0.00 in0.0 mm 0.00 in0.0 mm 0.00 in0.0 mm
02:45 AM 23.5°F-4.7°C 12.8°F-10.7°C 63% 6.4 mph NE10.3 kmh NE 18.3 mph29.5 kmh 30.59 in1035.9 mb 0.00 in0.0 mm 0.00 in0.0 mm 0.00 in0.0 mm
03:00 AM 23.5°F-4.7°C 12.4°F-10.9°C 62% 9.8 mph NE15.8 kmh NE 21.9 mph35.2 kmh 30.59 in1035.9 mb 0.00 in0.0 mm 0.00 in0.0 mm 0.00 in0.0 mm
03:15 AM 23.2°F-4.9°C 12.8°F-10.7°C 64% 8.9 mph NE14.3 kmh NE 26.8 mph43.1 kmh 30.60 in1036.2 mb 0.00 in0.0 mm 0.00 in0.0 mm 0.00 in0.0 mm
03:30 AM 22.8°F-5.1°C 12.5°F-10.8°C 64% 7.1 mph NE11.4 kmh NE 18.8 mph30.3 kmh 30.61 in1036.6 mb 0.00 in0.0 mm 0.00 in0.0 mm 0.00 in0.0 mm
03:45 AM 22.5°F-5.3°C 12.5°F-10.8°C 65% 7.9 mph NE12.7 kmh NE 17.0 mph27.4 kmh 30.61 in1036.6 mb 0.00 in0.0 mm 0.00 in0.0 mm 0.00 in0.0 mm
04:00 AM 22.1°F-5.5°C 12.5°F-10.8°C 66% 7.4 mph NE11.9 kmh NE 17.7 mph28.5 kmh 30.61 in1036.6 mb 0.00 in0.0 mm 0.00 in0.0 mm 0.00 in0.0 mm
04:15 AM 21.9°F-5.6°C 12.3°F-10.9°C 66% 9.5 mph NE15.3 kmh NE 23.5 mph37.8 kmh 30.62 in1036.9 mb 0.00 in0.0 mm 0.00 in0.0 mm 0.00 in0.0 mm
04:30 AM 22.3°F-5.4°C 12.6°F-10.8°C 66% 9.8 mph ENE15.8 kmh ENE 19.0 mph30.6 kmh 30.61 in1036.6 mb 0.00 in0.0 mm 0.00 in0.0 mm 0.00 in0.0 mm
04:45 AM 21.9°F-5.6°C 12.6°F-10.8°C 67% 8.1 mph E13.0 kmh E 20.6 mph33.2 kmh 30.61 in1036.6 mb 0.00 in0.0 mm 0.00 in0.0 mm 0.00 in0.0 mm
05:00 AM 21.9°F-5.6°C 12.6°F-10.8°C 67% 10.0 mph E16.1 kmh E 23.7 mph38.1 kmh 30.61 in1036.6 mb 0.00 in0.0 mm 0.00 in0.0 mm 0.00 in0.0 mm
05:15 AM 21.7°F-5.7°C 12.8°F-10.7°C 68% 8.7 mph ENE14.0 kmh ENE 25.5 mph41.0 kmh 30.63 in1037.3 mb 0.02 in0.5 mm 0.08 in2.0 mm 0.02 in0.5 mm
05:30 AM 21.4°F-5.9°C 12.5°F-10.8°C 68% 8.6 mph SE13.8 kmh SE 31.1 mph50.1 kmh 30.62 in1036.9 mb 0.02 in0.5 mm 0.00 in0.0 mm 0.02 in0.5 mm
05:45 AM 21.4°F-5.9°C 12.5°F-10.8°C 68% 9.5 mph E15.3 kmh E 25.9 mph41.7 kmh 30.63 in1037.3 mb 0.02 in0.5 mm 0.00 in0.0 mm 0.02 in0.5 mm
06:00 AM 21.6°F-5.8°C 12.6°F-10.8°C 68% 8.6 mph E13.8 kmh E 18.3 mph29.5 kmh 30.64 in1037.6 mb 0.02 in0.5 mm 0.00 in0.0 mm 0.02 in0.5 mm
06:15 AM 21.6°F-5.8°C 12.6°F-10.8°C 68% 8.5 mph E13.7 kmh E 20.1 mph32.3 kmh 30.64 in1037.6 mb 0.00 in0.0 mm 0.00 in0.0 mm 0.02 in0.5 mm
06:30 AM 21.7°F-5.7°C 12.8°F-10.7°C 68% 9.8 mph E15.8 kmh E 24.6 mph39.6 kmh 30.64 in1037.6 mb 0.00 in0.0 mm 0.00 in0.0 mm 0.02 in0.5 mm
06:45 AM 22.1°F-5.5°C 12.8°F-10.7°C 67% 9.8 mph ENE15.8 kmh ENE 26.2 mph42.2 kmh 30.64 in1037.6 mb 0.00 in0.0 mm 0.00 in0.0 mm 0.02 in0.5 mm
07:00 AM 22.1°F-5.5°C 12.5°F-10.8°C 66% 9.1 mph NE14.6 kmh NE 28.9 mph46.5 kmh 30.63 in1037.3 mb 0.00 in0.0 mm 0.00 in0.0 mm 0.02 in0.5 mm
07:15 AM 22.5°F-5.3°C 12.8°F-10.7°C 66% 8.2 mph E13.2 kmh E 17.0 mph27.4 kmh 30.63 in1037.3 mb 0.00 in0.0 mm 0.00 in0.0 mm 0.02 in0.5 mm
07:30 AM 22.5°F-5.3°C 12.5°F-10.8°C 65% 8.6 mph ENE13.8 kmh ENE 21.9 mph35.2 kmh 30.63 in1037.3 mb 0.00 in0.0 mm 0.00 in0.0 mm 0.02 in0.5 mm
07:36 AM 22.6°F-5.2°C 12.6°F-10.8°C 65% 7.8 mph S12.6 kmh S 11.9 mph19.2 kmh 30.63 in1037.3 mb 0.00 in0.0 mm 0.00 in0.0 mm 0.02 in0.5 mm
07:41 AM 22.5°F-5.3°C 12.5°F-10.8°C 65% 10.5 mph N16.9 kmh N 16.3 mph26.2 kmh 30.62 in1036.9 mb 0.00 in0.0 mm 0.00 in0.0 mm 0.02 in0.5 mm
07:45 AM 22.6°F-5.2°C 12.6°F-10.8°C 65% 10.1 mph ENE16.3 kmh ENE 21.0 mph33.8 kmh 30.62 in1036.9 mb 0.00 in0.0 mm 0.00 in0.0 mm 0.02 in0.5 mm
08:00 AM 22.5°F-5.3°C 12.5°F-10.8°C 65% 9.0 mph E14.5 kmh E 19.7 mph31.7 kmh 30.62 in1036.9 mb 0.00 in0.0 mm 0.00 in0.0 mm 0.02 in0.5 mm
08:15 AM 22.3°F-5.4°C 12.6°F-10.8°C 66% 9.1 mph E14.6 kmh E 25.1 mph40.4 kmh 30.62 in1036.9 mb 0.02 in0.5 mm 0.08 in2.0 mm 0.02 in0.5 mm
08:30 AM 22.5°F-5.3°C 12.5°F-10.8°C 65% 8.1 mph ESE13.0 kmh ESE 19.7 mph31.7 kmh 30.63 in1037.3 mb 0.02 in0.5 mm 0.00 in0.0 mm 0.02 in0.5 mm
08:45 AM 22.6°F-5.2°C 12.3°F-10.9°C 64% 9.0 mph E14.5 kmh E 21.9 mph35.2 kmh 30.62 in1036.9 mb 0.04 in1.0 mm 0.08 in2.0 mm 0.04 in1.0 mm
09:00 AM 22.8°F-5.1°C 12.5°F-10.8°C 64% 10.1 mph ENE16.3 kmh ENE 22.4 mph36.0 kmh 30.62 in1036.9 mb 0.04 in1.0 mm 0.00 in0.0 mm 0.06 in1.5 mm
09:15 AM 23.7°F-4.6°C 13.0°F-10.6°C 63% 10.8 mph E17.4 kmh E 22.6 mph36.4 kmh 30.60 in1036.2 mb 0.04 in1.0 mm 0.00 in0.0 mm 0.06 in1.5 mm
09:30 AM 24.1°F-4.4°C 13.3°F-10.4°C 63% 8.9 mph NE14.3 kmh NE 21.7 mph34.9 kmh 30.59 in1035.9 mb 0.04 in1.0 mm 0.00 in0.0 mm 0.06 in1.5 mm
09:45 AM 24.4°F-4.2°C 13.6°F-10.2°C 63% 9.4 mph ENE15.1 kmh ENE 21.7 mph34.9 kmh 30.58 in1035.6 mb 0.04 in1.0 mm 0.00 in0.0 mm 0.12 in3.0 mm
10:00 AM 24.1°F-4.4°C 13.3°F-10.4°C 63% 10.1 mph NE16.3 kmh NE 24.4 mph39.3 kmh 30.57 in1035.2 mb 0.04 in1.0 mm 0.00 in0.0 mm 0.12 in3.0 mm
10:15 AM 24.4°F-4.2°C 14.0°F-10.0°C 64% 9.8 mph NE15.8 kmh NE 23.5 mph37.8 kmh 30.57 in1035.2 mb 0.04 in1.0 mm 0.00 in0.0 mm 0.12 in3.0 mm
10:30 AM 25.5°F-3.6°C 14.7°F-9.6°C 63% 8.1 mph E13.0 kmh E 18.6 mph29.9 kmh 30.56 in1034.9 mb 0.04 in1.0 mm 0.00 in0.0 mm 0.12 in3.0 mm
10:45 AM 26.1°F-3.3°C 14.8°F-9.6°C 62% 8.2 mph E13.2 kmh E 19.7 mph31.7 kmh 30.56 in1034.9 mb 0.00 in0.0 mm 0.00 in0.0 mm 0.12 in3.0 mm
11:00 AM 26.4°F-3.1°C 14.8°F-9.6°C 61% 8.3 mph E13.4 kmh E 20.1 mph32.3 kmh 30.55 in1034.5 mb 0.00 in0.0 mm 0.00 in0.0 mm 0.12 in3.0 mm
11:15 AM 27.0°F-2.8°C 14.9°F-9.5°C 60% 8.7 mph ESE14.0 kmh ESE 21.9 mph35.2 kmh 30.52 in1033.5 mb 0.00 in0.0 mm 0.00 in0.0 mm 0.12 in3.0 mm
11:30 AM 27.7°F-2.4°C 14.8°F-9.6°C 58% 9.1 mph E14.6 kmh E 20.4 mph32.8 kmh 30.52 in1033.5 mb 0.00 in0.0 mm 0.00 in0.0 mm 0.12 in3.0 mm
11:45 AM 28.6°F-1.9°C 14.9°F-9.5°C 56% 8.7 mph E14.0 kmh E 19.9 mph32.0 kmh 30.52 in1033.5 mb 0.00 in0.0 mm 0.00 in0.0 mm 0.12 in3.0 mm
12:00 PM 29.3°F-1.5°C 15.1°F-9.4°C 55% 8.7 mph E14.0 kmh E 18.3 mph29.5 kmh 30.51 in1033.2 mb 0.00 in0.0 mm 0.00 in0.0 mm 0.12 in3.0 mm
12:15 PM 29.8°F-1.2°C 15.6°F-9.1°C 55% 8.2 mph E13.2 kmh E 23.3 mph37.5 kmh 30.50 in1032.8 mb 0.00 in0.0 mm 0.00 in0.0 mm 0.12 in3.0 mm
12:30 PM 30.0°F-1.1°C 15.8°F-9.0°C 55% 8.0 mph ESE12.9 kmh ESE 20.4 mph32.8 kmh 30.50 in1032.8 mb 0.00 in0.0 mm 0.00 in0.0 mm 0.12 in3.0 mm
12:45 PM 30.4°F-0.9°C 15.7°F-9.1°C 54% 8.5 mph E13.7 kmh E 16.8 mph27.0 kmh 30.50 in1032.8 mb 0.00 in0.0 mm 0.00 in0.0 mm 0.12 in3.0 mm
01:00 PM 30.6°F-0.8°C 15.4°F-9.2°C 53% 9.1 mph E14.6 kmh E 24.6 mph39.6 kmh 30.50 in1032.8 mb 0.00 in0.0 mm 0.00 in0.0 mm 0.20 in5.1 mm
01:15 PM 30.7°F-0.7°C 16.0°F-8.9°C 54% 8.6 mph E13.8 kmh E 18.3 mph29.5 kmh 30.49 in1032.5 mb 0.00 in0.0 mm 0.00 in0.0 mm 0.20 in5.1 mm
01:30 PM 30.7°F-0.7°C 15.2°F-9.3°C 52% 9.9 mph E15.9 kmh E 21.7 mph34.9 kmh 30.48 in1032.2 mb 0.00 in0.0 mm 0.00 in0.0 mm 0.20 in5.1 mm
01:45 PM 30.7°F-0.7°C 14.7°F-9.6°C 51% 9.5 mph E15.3 kmh E 21.3 mph34.3 kmh 30.48 in1032.2 mb 0.00 in0.0 mm 0.00 in0.0 mm 0.20 in5.1 mm
02:00 PM 31.3°F-0.4°C 14.8°F-9.6°C 50% 8.7 mph E14.0 kmh E 17.7 mph28.5 kmh 30.48 in1032.2 mb 0.00 in0.0 mm 0.00 in0.0 mm 0.20 in5.1 mm
02:15 PM 31.3°F-0.4°C 14.8°F-9.6°C 50% 8.6 mph ENE13.8 kmh ENE 21.7 mph34.9 kmh 30.48 in1032.2 mb 0.00 in0.0 mm 0.00 in0.0 mm 0.20 in5.1 mm
02:30 PM 31.6°F-0.2°C 15.1°F-9.4°C 50% 7.2 mph ESE11.6 kmh ESE 17.0 mph27.4 kmh 30.48 in1032.2 mb 0.00 in0.0 mm 0.00 in0.0 mm 0.20 in5.1 mm
02:45 PM 31.6°F-0.2°C 15.1°F-9.4°C 50% 6.7 mph ESE10.8 kmh ESE 14.8 mph23.8 kmh 30.48 in1032.2 mb 0.00 in0.0 mm 0.00 in0.0 mm 0.20 in5.1 mm
03:00 PM 31.1°F-0.5°C 14.6°F-9.7°C 50% 7.5 mph E12.1 kmh E 21.3 mph34.3 kmh 30.48 in1032.2 mb 0.00 in0.0 mm 0.00 in0.0 mm 0.20 in5.1 mm
03:13 PM 30.7°F-0.7°C 14.3°F-9.8°C 50% 9.3 mph E15.0 kmh E 13.7 mph22.0 kmh 30.48 in1032.2 mb 0.00 in0.0 mm 0.00 in0.0 mm 0.06 in1.5 mm
03:15 PM 30.7°F-0.7°C 14.7°F-9.6°C 51% 7.6 mph NE12.2 kmh NE 17.2 mph27.7 kmh 30.47 in1031.8 mb 0.00 in0.0 mm 0.00 in0.0 mm 0.06 in1.5 mm
03:30 PM 30.2°F-1.0°C 14.2°F-9.9°C 51% 6.4 mph ENE10.3 kmh ENE 17.2 mph27.7 kmh 30.48 in1032.2 mb 0.00 in0.0 mm 0.00 in0.0 mm 0.06 in1.5 mm
03:45 PM 29.8°F-1.2°C 13.9°F-10.1°C 51% 7.1 mph NE11.4 kmh NE 18.3 mph29.5 kmh 30.48 in1032.2 mb 0.00 in0.0 mm 0.00 in0.0 mm 0.06 in1.5 mm
04:00 PM 29.3°F-1.5°C 13.4°F-10.3°C 51% 7.6 mph E12.2 kmh E 18.3 mph29.5 kmh 30.48 in1032.2 mb 0.00 in0.0 mm 0.00 in0.0 mm 0.06 in1.5 mm
04:15 PM 28.8°F-1.8°C 13.3°F-10.4°C 52% 8.3 mph ENE13.4 kmh ENE 22.8 mph36.7 kmh 30.47 in1031.8 mb 0.00 in0.0 mm 0.00 in0.0 mm 0.06 in1.5 mm
04:30 PM 28.6°F-1.9°C 13.2°F-10.4°C 52% 7.9 mph NE12.7 kmh NE 21.3 mph34.3 kmh 30.48 in1032.2 mb 0.00 in0.0 mm 0.00 in0.0 mm 0.06 in1.5 mm
04:45 PM 28.0°F-2.2°C 13.1°F-10.5°C 53% 8.7 mph ENE14.0 kmh ENE 21.5 mph34.6 kmh 30.48 in1032.2 mb 0.00 in0.0 mm 0.00 in0.0 mm 0.06 in1.5 mm
05:00 PM 27.3°F-2.6°C 12.4°F-10.9°C 53% 9.7 mph NE15.6 kmh NE 26.2 mph42.2 kmh 30.48 in1032.2 mb 0.00 in0.0 mm 0.00 in0.0 mm 0.06 in1.5 mm
05:15 PM 27.1°F-2.7°C 12.3°F-10.9°C 53% 7.5 mph E12.1 kmh E 17.0 mph27.4 kmh 30.48 in1032.2 mb 0.00 in0.0 mm 0.00 in0.0 mm 0.06 in1.5 mm
05:30 PM 26.8°F-2.9°C 12.3°F-10.9°C 54% 7.1 mph NE11.4 kmh NE 18.1 mph29.1 kmh 30.49 in1032.5 mb 0.00 in0.0 mm 0.00 in0.0 mm 0.06 in1.5 mm
05:45 PM 26.6°F-3.0°C 12.2°F-11.0°C 54% 7.4 mph ENE11.9 kmh ENE 25.9 mph41.7 kmh 30.48 in1032.2 mb 0.00 in0.0 mm 0.00 in0.0 mm 0.06 in1.5 mm
06:00 PM 26.4°F-3.1°C 12.0°F-11.1°C 54% 8.7 mph ENE14.0 kmh ENE 17.7 mph28.5 kmh 30.48 in1032.2 mb 0.00 in0.0 mm 0.00 in0.0 mm 0.06 in1.5 mm
06:15 PM 26.4°F-3.1°C 12.4°F-10.9°C 55% 7.9 mph E12.7 kmh E 19.5 mph31.4 kmh 30.48 in1032.2 mb 0.00 in0.0 mm 0.00 in0.0 mm 0.06 in1.5 mm
06:30 PM 26.4°F-3.1°C 12.4°F-10.9°C 55% 8.3 mph E13.4 kmh E 24.2 mph38.9 kmh 30.48 in1032.2 mb 0.00 in0.0 mm 0.00 in0.0 mm 0.06 in1.5 mm
06:45 PM 26.4°F-3.1°C 12.4°F-10.9°C 55% 9.0 mph E14.5 kmh E 19.9 mph32.0 kmh 30.48 in1032.2 mb 0.00 in0.0 mm 0.00 in0.0 mm 0.06 in1.5 mm
07:00 PM 26.2°F-3.2°C 12.7°F-10.7°C 56% 7.1 mph E11.4 kmh E 17.0 mph27.4 kmh 30.49 in1032.5 mb 0.00 in0.0 mm 0.00 in0.0 mm 0.06 in1.5 mm
07:02 PM 26.2°F-3.2°C 12.7°F-10.7°C 56% 5.6 mph E9.0 kmh E 7.0 mph11.3 kmh 30.49 in1032.5 mb 0.00 in0.0 mm 0.00 in0.0 mm 0.06 in1.5 mm
07:15 PM 26.2°F-3.2°C 12.2°F-11.0°C 55% 8.1 mph ENE13.0 kmh ENE 21.9 mph35.2 kmh 30.49 in1032.5 mb 0.00 in0.0 mm 0.00 in0.0 mm 0.06 in1.5 mm
07:30 PM 26.2°F-3.2°C 12.7°F-10.7°C 56% 7.4 mph NE11.9 kmh NE 18.1 mph29.1 kmh 30.50 in1032.8 mb 0.00 in0.0 mm 0.00 in0.0 mm 0.06 in1.5 mm
07:45 PM 26.2°F-3.2°C 12.7°F-10.7°C 56% 7.9 mph NE12.7 kmh NE 21.9 mph35.2 kmh 30.50 in1032.8 mb 0.00 in0.0 mm 0.00 in0.0 mm 0.06 in1.5 mm
08:00 PM 26.2°F-3.2°C 12.7°F-10.7°C 56% 7.1 mph E11.4 kmh E 20.4 mph32.8 kmh 30.51 in1033.2 mb 0.00 in0.0 mm 0.00 in0.0 mm 0.06 in1.5 mm
08:15 PM 26.2°F-3.2°C 13.1°F-10.5°C 57% 7.5 mph E12.1 kmh E 17.9 mph28.8 kmh 30.50 in1032.8 mb 0.00 in0.0 mm 0.00 in0.0 mm 0.06 in1.5 mm
08:30 PM 26.1°F-3.3°C 12.5°F-10.8°C 56% 7.9 mph NE12.7 kmh NE 19.5 mph31.4 kmh 30.51 in1033.2 mb 0.00 in0.0 mm 0.00 in0.0 mm 0.06 in1.5 mm
08:45 PM 26.2°F-3.2°C 12.2°F-11.0°C 55% 6.6 mph E10.6 kmh E 15.4 mph24.8 kmh 30.51 in1033.2 mb 0.00 in0.0 mm 0.00 in0.0 mm 0.06 in1.5 mm
09:00 PM 26.2°F-3.2°C 12.2°F-11.0°C 55% 7.7 mph SE12.4 kmh SE 17.2 mph27.7 kmh 30.50 in1032.8 mb 0.00 in0.0 mm 0.00 in0.0 mm 0.06 in1.5 mm
09:15 PM 26.1°F-3.3°C 12.1°F-11.1°C 55% 7.8 mph ESE12.6 kmh ESE 22.4 mph36.0 kmh 30.49 in1032.5 mb 0.00 in0.0 mm 0.00 in0.0 mm 0.06 in1.5 mm
09:30 PM 25.9°F-3.4°C 11.5°F-11.4°C 54% 8.2 mph SSE13.2 kmh SSE 18.8 mph30.3 kmh 30.50 in1032.8 mb 0.00 in0.0 mm 0.00 in0.0 mm 0.06 in1.5 mm
09:45 PM 26.1°F-3.3°C 11.7°F-11.3°C 54% 8.1 mph SE13.0 kmh SE 16.8 mph27.0 kmh 30.50 in1032.8 mb 0.00 in0.0 mm 0.00 in0.0 mm 0.06 in1.5 mm
10:00 PM 26.2°F-3.2°C 11.8°F-11.2°C 54% 8.5 mph SSE13.7 kmh SSE 16.8 mph27.0 kmh 30.50 in1032.8 mb 0.00 in0.0 mm 0.00 in0.0 mm 0.06 in1.5 mm
10:15 PM 26.1°F-3.3°C 11.7°F-11.3°C 54% 9.1 mph SE14.6 kmh SE 19.7 mph31.7 kmh 30.50 in1032.8 mb 0.00 in0.0 mm 0.00 in0.0 mm 0.06 in1.5 mm
10:30 PM 26.2°F-3.2°C 11.4°F-11.4°C 53% 6.3 mph SE10.1 kmh SE 15.7 mph25.3 kmh 30.50 in1032.8 mb 0.00 in0.0 mm 0.00 in0.0 mm 0.06 in1.5 mm
10:45 PM 25.7°F-3.5°C 11.3°F-11.5°C 54% 7.4 mph SE11.9 kmh SE 19.0 mph30.6 kmh 30.50 in1032.8 mb 0.00 in0.0 mm 0.00 in0.0 mm 0.06 in1.5 mm
11:00 PM 25.7°F-3.5°C 11.3°F-11.5°C 54% 8.9 mph SE14.3 kmh SE 21.0 mph33.8 kmh 30.50 in1032.8 mb 0.00 in0.0 mm 0.00 in0.0 mm 0.06 in1.5 mm
11:15 PM 25.7°F-3.5°C 11.3°F-11.5°C 54% 9.4 mph SE15.1 kmh SE 21.3 mph34.3 kmh 30.50 in1032.8 mb 0.00 in0.0 mm 0.00 in0.0 mm 0.06 in1.5 mm
11:30 PM 25.7°F-3.5°C 11.3°F-11.5°C 54% 7.6 mph SE12.2 kmh SE 19.2 mph30.9 kmh 30.50 in1032.8 mb 0.00 in0.0 mm 0.00 in0.0 mm 0.06 in1.5 mm
11:45 PM 25.7°F-3.5°C 10.9°F-11.7°C 53% 7.7 mph SSE12.4 kmh SSE 16.1 mph25.9 kmh 30.50 in1032.8 mb 0.00 in0.0 mm 0.00 in0.0 mm 0.06 in1.5 mm